sensor_id;sensor_type;location;lat;lon;timestamp;P1;durP1;ratioP1;P2;durP2;ratioP2
8819;SDS011;4446;50.876;4.736;2023-03-01T00:01:33;13.20;;;8.82;;
8819;SDS011;4446;50.876;4.736;2023-03-01T00:04:00;11.65;;;8.70;;
8819;SDS011;4446;50.876;4.736;2023-03-01T00:06:27;12.18;;;8.95;;
8819;SDS011;4446;50.876;4.736;2023-03-01T00:08:54;16.27;;;10.00;;
8819;SDS011;4446;50.876;4.736;2023-03-01T00:11:23;13.48;;;9.15;;
8819;SDS011;4446;50.876;4.736;2023-03-01T00:13:52;16.80;;;9.52;;
8819;SDS011;4446;50.876;4.736;2023-03-01T00:16:20;11.25;;;8.55;;
8819;SDS011;4446;50.876;4.736;2023-03-01T00:18:48;13.98;;;8.65;;
8819;SDS011;4446;50.876;4.736;2023-03-01T00:21:15;13.43;;;9.63;;
8819;SDS011;4446;50.876;4.736;2023-03-01T00:23:42;13.30;;;9.23;;
8819;SDS011;4446;50.876;4.736;2023-03-01T00:26:10;13.63;;;9.05;;
8819;SDS011;4446;50.876;4.736;2023-03-01T00:28:41;14.05;;;8.88;;
8819;SDS011;4446;50.876;4.736;2023-03-01T00:31:09;12.50;;;8.82;;
8819;SDS011;4446;50.876;4.736;2023-03-01T00:33:37;12.73;;;9.10;;
8819;SDS011;4446;50.876;4.736;2023-03-01T00:36:04;13.05;;;9.68;;
8819;SDS011;4446;50.876;4.736;2023-03-01T00:38:34;13.30;;;8.57;;
8819;SDS011;4446;50.876;4.736;2023-03-01T00:41:05;12.48;;;9.07;;
8819;SDS011;4446;50.876;4.736;2023-03-01T00:43:32;12.03;;;8.47;;
8819;SDS011;4446;50.876;4.736;2023-03-01T00:46:03;12.30;;;8.60;;
8819;SDS011;4446;50.876;4.736;2023-03-01T00:48:31;12.60;;;9.33;;
8819;SDS011;4446;50.876;4.736;2023-03-01T00:51:03;12.47;;;9.07;;
8819;SDS011;4446;50.876;4.736;2023-03-01T00:53:31;12.77;;;8.70;;
8819;SDS011;4446;50.876;4.736;2023-03-01T00:55:58;12.60;;;8.60;;
8819;SDS011;4446;50.876;4.736;2023-03-01T00:58:25;14.32;;;9.13;;
8819;SDS011;4446;50.876;4.736;2023-03-01T01:00:52;13.90;;;9.50;;
8819;SDS011;4446;50.876;4.736;2023-03-01T01:03:20;13.85;;;9.07;;
8819;SDS011;4446;50.876;4.736;2023-03-01T01:05:49;13.60;;;8.83;;
8819;SDS011;4446;50.876;4.736;2023-03-01T01:08:16;13.67;;;9.63;;
8819;SDS011;4446;50.876;4.736;2023-03-01T01:10:43;13.90;;;9.97;;
8819;SDS011;4446;50.876;4.736;2023-03-01T01:13:10;14.20;;;9.23;;
8819;SDS011;4446;50.876;4.736;2023-03-01T01:15:38;14.67;;;9.50;;
8819;SDS011;4446;50.876;4.736;2023-03-01T01:18:05;13.77;;;9.40;;
8819;SDS011;4446;50.876;4.736;2023-03-01T01:20:34;13.60;;;9.57;;
8819;SDS011;4446;50.876;4.736;2023-03-01T01:23:02;15.23;;;9.70;;
8819;SDS011;4446;50.876;4.736;2023-03-01T01:25:33;12.45;;;9.15;;
8819;SDS011;4446;50.876;4.736;2023-03-01T01:28:01;11.77;;;9.17;;
8819;SDS011;4446;50.876;4.736;2023-03-01T01:30:28;15.02;;;9.45;;
8819;SDS011;4446;50.876;4.736;2023-03-01T01:32:55;14.80;;;9.18;;
8819;SDS011;4446;50.876;4.736;2023-03-01T01:35:22;17.60;;;9.50;;
8819;SDS011;4446;50.876;4.736;2023-03-01T01:37:51;14.00;;;9.17;;
8819;SDS011;4446;50.876;4.736;2023-03-01T01:40:17;15.07;;;9.13;;
8819;SDS011;4446;50.876;4.736;2023-03-01T01:42:44;13.63;;;9.03;;
8819;SDS011;4446;50.876;4.736;2023-03-01T01:45:24;12.70;;;8.93;;
8819;SDS011;4446;50.876;4.736;2023-03-01T01:47:54;15.63;;;9.30;;
8819;SDS011;4446;50.876;4.736;2023-03-01T01:50:25;13.63;;;9.57;;
8819;SDS011;4446;50.876;4.736;2023-03-01T01:52:54;13.77;;;9.82;;
8819;SDS011;4446;50.876;4.736;2023-03-01T01:55:21;13.53;;;9.03;;
8819;SDS011;4446;50.876;4.736;2023-03-01T01:57:53;11.50;;;8.83;;
8819;SDS011;4446;50.876;4.736;2023-03-01T02:00:24;12.87;;;9.20;;
8819;SDS011;4446;50.876;4.736;2023-03-01T02:02:54;12.03;;;8.97;;
8819;SDS011;4446;50.876;4.736;2023-03-01T02:05:26;12.30;;;8.50;;
8819;SDS011;4446;50.876;4.736;2023-03-01T02:08:06;14.07;;;9.27;;
8819;SDS011;4446;50.876;4.736;2023-03-01T02:10:36;14.37;;;9.47;;
8819;SDS011;4446;50.876;4.736;2023-03-01T02:13:04;14.80;;;8.83;;
8819;SDS011;4446;50.876;4.736;2023-03-01T02:15:31;12.20;;;8.37;;
8819;SDS011;4446;50.876;4.736;2023-03-01T02:17:59;14.30;;;9.33;;
8819;SDS011;4446;50.876;4.736;2023-03-01T02:20:29;14.13;;;8.77;;
8819;SDS011;4446;50.876;4.736;2023-03-01T02:23:01;13.63;;;9.47;;
8819;SDS011;4446;50.876;4.736;2023-03-01T02:25:35;13.57;;;9.07;;
8819;SDS011;4446;50.876;4.736;2023-03-01T02:28:08;12.27;;;8.82;;
8819;SDS011;4446;50.876;4.736;2023-03-01T02:30:43;12.73;;;9.00;;
8819;SDS011;4446;50.876;4.736;2023-03-01T02:33:26;13.47;;;9.23;;
8819;SDS011;4446;50.876;4.736;2023-03-01T02:35:57;12.77;;;9.00;;
8819;SDS011;4446;50.876;4.736;2023-03-01T02:38:26;13.53;;;9.13;;
8819;SDS011;4446;50.876;4.736;2023-03-01T02:40:54;13.57;;;9.27;;
8819;SDS011;4446;50.876;4.736;2023-03-01T02:43:24;14.20;;;9.37;;
8819;SDS011;4446;50.876;4.736;2023-03-01T02:45:57;13.93;;;9.27;;
8819;SDS011;4446;50.876;4.736;2023-03-01T02:48:25;13.80;;;9.50;;
8819;SDS011;4446;50.876;4.736;2023-03-01T02:50:55;13.43;;;9.13;;
8819;SDS011;4446;50.876;4.736;2023-03-01T02:53:33;12.57;;;8.90;;
8819;SDS011;4446;50.876;4.736;2023-03-01T02:56:07;13.10;;;9.20;;
8819;SDS011;4446;50.876;4.736;2023-03-01T02:58:38;13.40;;;9.10;;
8819;SDS011;4446;50.876;4.736;2023-03-01T03:01:12;13.73;;;8.80;;
8819;SDS011;4446;50.876;4.736;2023-03-01T03:03:40;13.03;;;9.00;;
8819;SDS011;4446;50.876;4.736;2023-03-01T03:06:09;14.40;;;9.57;;
8819;SDS011;4446;50.876;4.736;2023-03-01T03:08:36;11.87;;;9.30;;
8819;SDS011;4446;50.876;4.736;2023-03-01T03:11:03;14.03;;;9.80;;
8819;SDS011;4446;50.876;4.736;2023-03-01T03:13:30;15.63;;;9.43;;
8819;SDS011;4446;50.876;4.736;2023-03-01T03:15:57;12.40;;;8.97;;
8819;SDS011;4446;50.876;4.736;2023-03-01T03:18:25;13.07;;;9.50;;
8819;SDS011;4446;50.876;4.736;2023-03-01T03:20:53;14.03;;;9.63;;
8819;SDS011;4446;50.876;4.736;2023-03-01T03:23:20;14.90;;;9.30;;
8819;SDS011;4446;50.876;4.736;2023-03-01T03:25:48;13.07;;;9.33;;
8819;SDS011;4446;50.876;4.736;2023-03-01T03:28:16;13.97;;;9.27;;
8819;SDS011;4446;50.876;4.736;2023-03-01T03:30:43;13.20;;;8.97;;
8819;SDS011;4446;50.876;4.736;2023-03-01T03:33:12;15.23;;;9.90;;
8819;SDS011;4446;50.876;4.736;2023-03-01T03:35:41;14.50;;;9.67;;
8819;SDS011;4446;50.876;4.736;2023-03-01T03:38:10;15.13;;;9.70;;
8819;SDS011;4446;50.876;4.736;2023-03-01T03:40:42;13.20;;;9.20;;
8819;SDS011;4446;50.876;4.736;2023-03-01T03:43:11;15.33;;;10.37;;
8819;SDS011;4446;50.876;4.736;2023-03-01T03:45:39;15.83;;;10.13;;
8819;SDS011;4446;50.876;4.736;2023-03-01T03:48:08;16.40;;;9.83;;
8819;SDS011;4446;50.876;4.736;2023-03-01T03:50:35;15.20;;;9.93;;
8819;SDS011;4446;50.876;4.736;2023-03-01T03:53:05;13.33;;;9.50;;
8819;SDS011;4446;50.876;4.736;2023-03-01T03:55:33;12.80;;;9.27;;
8819;SDS011;4446;50.876;4.736;2023-03-01T03:58:00;13.40;;;9.40;;
8819;SDS011;4446;50.876;4.736;2023-03-01T04:00:32;15.47;;;10.20;;
8819;SDS011;4446;50.876;4.736;2023-03-01T04:03:00;14.80;;;9.27;;
8819;SDS011;4446;50.876;4.736;2023-03-01T04:05:27;14.93;;;10.07;;
8819;SDS011;4446;50.876;4.736;2023-03-01T04:07:54;13.60;;;10.00;;
8819;SDS011;4446;50.876;4.736;2023-03-01T04:10:28;14.10;;;10.10;;
8819;SDS011;4446;50.876;4.736;2023-03-01T04:12:56;16.70;;;10.43;;
8819;SDS011;4446;50.876;4.736;2023-03-01T04:15:23;13.13;;;9.63;;
8819;SDS011;4446;50.876;4.736;2023-03-01T04:17:52;17.37;;;10.80;;
8819;SDS011;4446;50.876;4.736;2023-03-01T04:20:20;16.53;;;9.77;;
8819;SDS011;4446;50.876;4.736;2023-03-01T04:22:50;14.67;;;9.70;;
8819;SDS011;4446;50.876;4.736;2023-03-01T04:25:17;16.33;;;10.73;;
8819;SDS011;4446;50.876;4.736;2023-03-01T04:27:46;15.77;;;10.47;;
8819;SDS011;4446;50.876;4.736;2023-03-01T04:30:13;15.67;;;10.67;;
8819;SDS011;4446;50.876;4.736;2023-03-01T04:32:40;16.90;;;11.60;;
8819;SDS011;4446;50.876;4.736;2023-03-01T04:35:08;16.90;;;10.87;;
8819;SDS011;4446;50.876;4.736;2023-03-01T04:37:35;15.93;;;10.53;;
8819;SDS011;4446;50.876;4.736;2023-03-01T04:40:02;17.33;;;11.23;;
8819;SDS011;4446;50.876;4.736;2023-03-01T04:42:37;14.20;;;9.93;;
8819;SDS011;4446;50.876;4.736;2023-03-01T04:45:06;15.97;;;10.40;;
8819;SDS011;4446;50.876;4.736;2023-03-01T04:47:38;14.70;;;10.20;;
8819;SDS011;4446;50.876;4.736;2023-03-01T04:50:06;16.20;;;11.10;;
8819;SDS011;4446;50.876;4.736;2023-03-01T04:52:34;14.33;;;9.97;;
8819;SDS011;4446;50.876;4.736;2023-03-01T04:55:01;16.37;;;10.87;;
8819;SDS011;4446;50.876;4.736;2023-03-01T04:57:28;18.17;;;11.00;;
8819;SDS011;4446;50.876;4.736;2023-03-01T04:59:55;17.67;;;10.57;;
8819;SDS011;4446;50.876;4.736;2023-03-01T05:02:24;16.40;;;10.73;;
8819;SDS011;4446;50.876;4.736;2023-03-01T05:04:50;18.00;;;10.77;;
8819;SDS011;4446;50.876;4.736;2023-03-01T05:07:22;19.93;;;11.03;;
8819;SDS011;4446;50.876;4.736;2023-03-01T05:09:49;17.07;;;10.63;;
8819;SDS011;4446;50.876;4.736;2023-03-01T05:12:16;15.07;;;11.10;;
8819;SDS011;4446;50.876;4.736;2023-03-01T05:14:43;15.53;;;10.77;;
8819;SDS011;4446;50.876;4.736;2023-03-01T05:17:10;15.23;;;10.23;;
8819;SDS011;4446;50.876;4.736;2023-03-01T05:19:38;17.10;;;11.93;;
8819;SDS011;4446;50.876;4.736;2023-03-01T05:22:07;17.87;;;12.27;;
8819;SDS011;4446;50.876;4.736;2023-03-01T05:24:34;18.43;;;12.80;;
8819;SDS011;4446;50.876;4.736;2023-03-01T05:27:02;16.63;;;11.53;;
8819;SDS011;4446;50.876;4.736;2023-03-01T05:29:29;18.07;;;11.40;;
8819;SDS011;4446;50.876;4.736;2023-03-01T05:32:00;17.83;;;11.50;;
8819;SDS011;4446;50.876;4.736;2023-03-01T05:34:29;20.23;;;12.63;;
8819;SDS011;4446;50.876;4.736;2023-03-01T05:36:59;18.70;;;11.70;;
8819;SDS011;4446;50.876;4.736;2023-03-01T05:39:27;17.03;;;11.23;;
8819;SDS011;4446;50.876;4.736;2023-03-01T05:41:55;19.07;;;11.03;;
8819;SDS011;4446;50.876;4.736;2023-03-01T05:44:23;17.00;;;11.30;;
8819;SDS011;4446;50.876;4.736;2023-03-01T05:46:51;16.33;;;11.17;;
8819;SDS011;4446;50.876;4.736;2023-03-01T05:49:18;16.88;;;10.60;;
8819;SDS011;4446;50.876;4.736;2023-03-01T05:51:47;16.27;;;10.90;;
8819;SDS011;4446;50.876;4.736;2023-03-01T05:54:17;18.07;;;11.37;;
8819;SDS011;4446;50.876;4.736;2023-03-01T05:56:44;19.53;;;10.87;;
8819;SDS011;4446;50.876;4.736;2023-03-01T05:59:12;15.10;;;10.33;;
8819;SDS011;4446;50.876;4.736;2023-03-01T06:01:41;15.80;;;10.60;;
8819;SDS011;4446;50.876;4.736;2023-03-01T06:04:08;14.50;;;11.25;;
8819;SDS011;4446;50.876;4.736;2023-03-01T06:06:36;15.87;;;10.30;;
8819;SDS011;4446;50.876;4.736;2023-03-01T06:09:03;19.37;;;11.60;;
8819;SDS011;4446;50.876;4.736;2023-03-01T06:11:34;18.13;;;12.20;;
8819;SDS011;4446;50.876;4.736;2023-03-01T06:14:02;17.90;;;11.60;;
8819;SDS011;4446;50.876;4.736;2023-03-01T06:16:29;18.97;;;11.43;;
8819;SDS011;4446;50.876;4.736;2023-03-01T06:18:56;16.88;;;11.35;;
8819;SDS011;4446;50.876;4.736;2023-03-01T06:21:23;17.97;;;10.97;;
8819;SDS011;4446;50.876;4.736;2023-03-01T06:23:49;14.60;;;10.20;;
8819;SDS011;4446;50.876;4.736;2023-03-01T06:26:16;15.87;;;10.70;;
8819;SDS011;4446;50.876;4.736;2023-03-01T06:28:45;19.70;;;11.80;;
8819;SDS011;4446;50.876;4.736;2023-03-01T06:31:12;16.93;;;11.20;;
8819;SDS011;4446;50.876;4.736;2023-03-01T06:33:38;21.23;;;12.17;;
8819;SDS011;4446;50.876;4.736;2023-03-01T06:36:06;19.00;;;12.40;;
8819;SDS011;4446;50.876;4.736;2023-03-01T06:38:34;18.43;;;12.43;;
8819;SDS011;4446;50.876;4.736;2023-03-01T06:41:01;17.50;;;11.40;;
8819;SDS011;4446;50.876;4.736;2023-03-01T06:43:28;17.48;;;11.77;;
8819;SDS011;4446;50.876;4.736;2023-03-01T06:45:57;17.03;;;11.30;;
8819;SDS011;4446;50.876;4.736;2023-03-01T06:48:23;17.20;;;11.30;;
8819;SDS011;4446;50.876;4.736;2023-03-01T06:50:50;17.97;;;11.23;;
8819;SDS011;4446;50.876;4.736;2023-03-01T06:53:17;17.60;;;11.40;;
8819;SDS011;4446;50.876;4.736;2023-03-01T06:55:44;15.87;;;10.97;;
8819;SDS011;4446;50.876;4.736;2023-03-01T06:58:11;16.40;;;11.87;;
8819;SDS011;4446;50.876;4.736;2023-03-01T07:00:38;20.03;;;12.83;;
8819;SDS011;4446;50.876;4.736;2023-03-01T07:03:07;18.40;;;12.87;;
8819;SDS011;4446;50.876;4.736;2023-03-01T07:05:35;18.20;;;12.37;;
8819;SDS011;4446;50.876;4.736;2023-03-01T07:08:02;21.67;;;13.07;;
8819;SDS011;4446;50.876;4.736;2023-03-01T07:10:29;19.13;;;11.93;;
8819;SDS011;4446;50.876;4.736;2023-03-01T07:12:56;18.00;;;12.47;;
8819;SDS011;4446;50.876;4.736;2023-03-01T07:15:23;18.57;;;12.17;;
8819;SDS011;4446;50.876;4.736;2023-03-01T07:17:50;18.97;;;12.77;;
8819;SDS011;4446;50.876;4.736;2023-03-01T07:20:19;18.20;;;12.70;;
8819;SDS011;4446;50.876;4.736;2023-03-01T07:22:49;19.90;;;12.70;;
8819;SDS011;4446;50.876;4.736;2023-03-01T07:25:16;20.23;;;13.47;;
8819;SDS011;4446;50.876;4.736;2023-03-01T07:27:43;23.13;;;13.63;;
8819;SDS011;4446;50.876;4.736;2023-03-01T07:30:14;22.60;;;13.63;;
8819;SDS011;4446;50.876;4.736;2023-03-01T07:32:42;22.00;;;14.00;;
8819;SDS011;4446;50.876;4.736;2023-03-01T07:35:10;20.03;;;13.40;;
8819;SDS011;4446;50.876;4.736;2023-03-01T07:37:38;19.20;;;13.60;;
8819;SDS011;4446;50.876;4.736;2023-03-01T07:40:05;19.30;;;13.25;;
8819;SDS011;4446;50.876;4.736;2023-03-01T07:42:33;23.67;;;14.03;;
8819;SDS011;4446;50.876;4.736;2023-03-01T07:45:00;20.73;;;13.27;;
8819;SDS011;4446;50.876;4.736;2023-03-01T07:47:29;20.03;;;13.50;;
8819;SDS011;4446;50.876;4.736;2023-03-01T07:49:55;21.48;;;13.52;;
8819;SDS011;4446;50.876;4.736;2023-03-01T07:52:22;20.88;;;13.50;;
8819;SDS011;4446;50.876;4.736;2023-03-01T07:54:51;19.53;;;13.47;;
8819;SDS011;4446;50.876;4.736;2023-03-01T07:57:17;19.50;;;13.33;;
8819;SDS011;4446;50.876;4.736;2023-03-01T07:59:44;22.48;;;13.43;;
8819;SDS011;4446;50.876;4.736;2023-03-01T08:02:11;20.90;;;13.60;;
8819;SDS011;4446;50.876;4.736;2023-03-01T08:04:40;21.13;;;14.63;;
8819;SDS011;4446;50.876;4.736;2023-03-01T08:07:07;22.98;;;14.45;;
8819;SDS011;4446;50.876;4.736;2023-03-01T08:09:34;21.58;;;13.93;;
8819;SDS011;4446;50.876;4.736;2023-03-01T08:12:03;21.77;;;14.05;;
8819;SDS011;4446;50.876;4.736;2023-03-01T08:14:31;19.90;;;14.02;;
8819;SDS011;4446;50.876;4.736;2023-03-01T08:16:58;23.08;;;14.68;;
8819;SDS011;4446;50.876;4.736;2023-03-01T08:19:25;20.13;;;13.53;;
8819;SDS011;4446;50.876;4.736;2023-03-01T08:21:53;21.40;;;13.73;;
8819;SDS011;4446;50.876;4.736;2023-03-01T08:24:20;19.42;;;13.52;;
8819;SDS011;4446;50.876;4.736;2023-03-01T08:26:47;21.40;;;13.83;;
8819;SDS011;4446;50.876;4.736;2023-03-01T08:29:16;22.20;;;14.20;;
8819;SDS011;4446;50.876;4.736;2023-03-01T08:31:43;21.65;;;13.52;;
8819;SDS011;4446;50.876;4.736;2023-03-01T08:34:10;23.60;;;14.17;;
8819;SDS011;4446;50.876;4.736;2023-03-01T08:36:39;21.55;;;14.10;;
8819;SDS011;4446;50.876;4.736;2023-03-01T08:39:08;17.05;;;12.48;;
8819;SDS011;4446;50.876;4.736;2023-03-01T08:41:36;20.08;;;13.32;;
8819;SDS011;4446;50.876;4.736;2023-03-01T08:44:03;19.35;;;13.13;;
8819;SDS011;4446;50.876;4.736;2023-03-01T08:46:33;18.48;;;13.40;;
8819;SDS011;4446;50.876;4.736;2023-03-01T08:49:03;17.98;;;12.60;;
8819;SDS011;4446;50.876;4.736;2023-03-01T08:51:30;19.50;;;12.30;;
8819;SDS011;4446;50.876;4.736;2023-03-01T08:54:01;18.50;;;11.95;;
8819;SDS011;4446;50.876;4.736;2023-03-01T08:56:28;17.95;;;11.93;;
8819;SDS011;4446;50.876;4.736;2023-03-01T08:58:55;19.20;;;12.38;;
8819;SDS011;4446;50.876;4.736;2023-03-01T09:01:22;20.48;;;11.85;;
8819;SDS011;4446;50.876;4.736;2023-03-01T09:03:50;17.30;;;11.95;;
8819;SDS011;4446;50.876;4.736;2023-03-01T09:06:18;20.27;;;11.90;;
8819;SDS011;4446;50.876;4.736;2023-03-01T09:08:46;16.73;;;11.63;;
8819;SDS011;4446;50.876;4.736;2023-03-01T09:11:14;15.60;;;11.27;;
8819;SDS011;4446;50.876;4.736;2023-03-01T09:13:43;21.75;;;11.38;;
8819;SDS011;4446;50.876;4.736;2023-03-01T09:16:10;18.35;;;11.32;;
8819;SDS011;4446;50.876;4.736;2023-03-01T09:18:39;18.85;;;11.63;;
8819;SDS011;4446;50.876;4.736;2023-03-01T09:21:08;18.92;;;11.70;;
8819;SDS011;4446;50.876;4.736;2023-03-01T09:23:40;20.15;;;11.52;;
8819;SDS011;4446;50.876;4.736;2023-03-01T09:26:08;16.60;;;10.95;;
8819;SDS011;4446;50.876;4.736;2023-03-01T09:28:36;16.55;;;11.18;;
8819;SDS011;4446;50.876;4.736;2023-03-01T09:31:04;18.30;;;10.88;;
8819;SDS011;4446;50.876;4.736;2023-03-01T09:33:31;19.67;;;11.27;;
8819;SDS011;4446;50.876;4.736;2023-03-01T09:35:59;16.00;;;11.23;;
8819;SDS011;4446;50.876;4.736;2023-03-01T09:38:28;14.90;;;10.85;;
8819;SDS011;4446;50.876;4.736;2023-03-01T09:40:55;16.13;;;11.20;;
8819;SDS011;4446;50.876;4.736;2023-03-01T09:43:23;15.25;;;10.45;;
8819;SDS011;4446;50.876;4.736;2023-03-01T09:45:56;15.88;;;10.52;;
8819;SDS011;4446;50.876;4.736;2023-03-01T09:48:31;15.23;;;10.52;;
8819;SDS011;4446;50.876;4.736;2023-03-01T09:51:03;16.00;;;10.73;;
8819;SDS011;4446;50.876;4.736;2023-03-01T09:53:36;16.05;;;11.00;;
8819;SDS011;4446;50.876;4.736;2023-03-01T09:56:04;14.63;;;10.73;;
8819;SDS011;4446;50.876;4.736;2023-03-01T09:58:41;15.20;;;10.25;;
8819;SDS011;4446;50.876;4.736;2023-03-01T10:04:09;16.33;;;10.77;;
8819;SDS011;4446;50.876;4.736;2023-03-01T10:06:47;16.13;;;10.90;;
8819;SDS011;4446;50.876;4.736;2023-03-01T10:09:20;14.68;;;10.48;;
8819;SDS011;4446;50.876;4.736;2023-03-01T10:11:48;16.45;;;10.40;;
8819;SDS011;4446;50.876;4.736;2023-03-01T10:14:21;16.63;;;10.90;;
8819;SDS011;4446;50.876;4.736;2023-03-01T10:16:56;14.38;;;10.50;;
8819;SDS011;4446;50.876;4.736;2023-03-01T10:19:29;15.80;;;10.77;;
8819;SDS011;4446;50.876;4.736;2023-03-01T10:22:04;12.88;;;10.38;;
8819;SDS011;4446;50.876;4.736;2023-03-01T10:24:40;14.18;;;10.40;;
8819;SDS011;4446;50.876;4.736;2023-03-01T10:27:09;15.32;;;10.60;;
8819;SDS011;4446;50.876;4.736;2023-03-01T10:29:44;16.40;;;10.40;;
8819;SDS011;4446;50.876;4.736;2023-03-01T10:32:18;14.55;;;10.07;;
8819;SDS011;4446;50.876;4.736;2023-03-01T10:34:47;15.90;;;10.65;;
8819;SDS011;4446;50.876;4.736;2023-03-01T10:37:14;13.15;;;10.23;;
8819;SDS011;4446;50.876;4.736;2023-03-01T10:39:57;15.32;;;10.50;;
8819;SDS011;4446;50.876;4.736;2023-03-01T10:42:31;13.90;;;10.25;;
8819;SDS011;4446;50.876;4.736;2023-03-01T10:45:14;14.75;;;10.02;;
8819;SDS011;4446;50.876;4.736;2023-03-01T10:47:43;13.80;;;10.60;;
8819;SDS011;4446;50.876;4.736;2023-03-01T10:50:17;12.93;;;9.60;;
8819;SDS011;4446;50.876;4.736;2023-03-01T10:52:55;14.32;;;9.88;;
8819;SDS011;4446;50.876;4.736;2023-03-01T10:55:26;14.50;;;10.13;;
8819;SDS011;4446;50.876;4.736;2023-03-01T10:58:06;13.15;;;10.05;;
8819;SDS011;4446;50.876;4.736;2023-03-01T11:00:45;15.20;;;10.13;;
8819;SDS011;4446;50.876;4.736;2023-03-01T11:03:14;17.48;;;10.38;;
8819;SDS011;4446;50.876;4.736;2023-03-01T11:05:54;13.45;;;9.43;;
8819;SDS011;4446;50.876;4.736;2023-03-01T11:08:36;13.13;;;9.45;;
8819;SDS011;4446;50.876;4.736;2023-03-01T11:11:19;15.00;;;9.70;;
8819;SDS011;4446;50.876;4.736;2023-03-01T11:13:57;13.30;;;10.07;;
8819;SDS011;4446;50.876;4.736;2023-03-01T11:16:26;12.75;;;9.27;;
8819;SDS011;4446;50.876;4.736;2023-03-01T11:19:00;13.27;;;9.45;;
8819;SDS011;4446;50.876;4.736;2023-03-01T11:21:31;13.02;;;9.27;;
8819;SDS011;4446;50.876;4.736;2023-03-01T11:24:01;12.85;;;9.57;;
8819;SDS011;4446;50.876;4.736;2023-03-01T11:26:31;12.13;;;9.27;;
8819;SDS011;4446;50.876;4.736;2023-03-01T11:29:03;12.00;;;8.75;;
8819;SDS011;4446;50.876;4.736;2023-03-01T11:31:37;12.57;;;8.93;;
8819;SDS011;4446;50.876;4.736;2023-03-01T11:34:06;12.55;;;9.38;;
8819;SDS011;4446;50.876;4.736;2023-03-01T11:36:40;13.23;;;9.70;;
8819;SDS011;4446;50.876;4.736;2023-03-01T11:39:15;12.50;;;9.40;;
8819;SDS011;4446;50.876;4.736;2023-03-01T11:41:50;13.30;;;8.77;;
8819;SDS011;4446;50.876;4.736;2023-03-01T11:44:26;12.20;;;9.02;;
8819;SDS011;4446;50.876;4.736;2023-03-01T11:47:09;14.07;;;9.13;;
8819;SDS011;4446;50.876;4.736;2023-03-01T11:49:49;16.02;;;9.48;;
8819;SDS011;4446;50.876;4.736;2023-03-01T11:52:31;16.33;;;10.30;;
8819;SDS011;4446;50.876;4.736;2023-03-01T11:55:20;12.07;;;9.23;;
8819;SDS011;4446;50.876;4.736;2023-03-01T11:58:05;15.85;;;9.30;;
8819;SDS011;4446;50.876;4.736;2023-03-01T12:00:53;14.45;;;10.07;;
8819;SDS011;4446;50.876;4.736;2023-03-01T12:06:51;12.65;;;8.98;;
8819;SDS011;4446;50.876;4.736;2023-03-01T12:09:27;13.07;;;9.23;;
8819;SDS011;4446;50.876;4.736;2023-03-01T12:12:12;12.50;;;8.82;;
8819;SDS011;4446;50.876;4.736;2023-03-01T12:15:04;13.07;;;8.52;;
8819;SDS011;4446;50.876;4.736;2023-03-01T12:17:55;12.30;;;8.38;;
8819;SDS011;4446;50.876;4.736;2023-03-01T12:20:32;13.15;;;8.65;;
8819;SDS011;4446;50.876;4.736;2023-03-01T12:23:16;12.02;;;8.90;;
8819;SDS011;4446;50.876;4.736;2023-03-01T12:25:55;14.27;;;9.20;;
8819;SDS011;4446;50.876;4.736;2023-03-01T12:28:35;14.68;;;9.20;;
8819;SDS011;4446;50.876;4.736;2023-03-01T12:31:35;15.23;;;9.48;;
8819;SDS011;4446;50.876;4.736;2023-03-01T12:34:24;14.02;;;9.52;;
8819;SDS011;4446;50.876;4.736;2023-03-01T12:37:18;11.98;;;9.40;;
8819;SDS011;4446;50.876;4.736;2023-03-01T12:40:00;14.48;;;10.10;;
8819;SDS011;4446;50.876;4.736;2023-03-01T12:43:02;16.67;;;9.73;;
8819;SDS011;4446;50.876;4.736;2023-03-01T12:45:52;12.75;;;8.73;;
8819;SDS011;4446;50.876;4.736;2023-03-01T12:48:54;13.70;;;9.38;;
8819;SDS011;4446;50.876;4.736;2023-03-01T12:51:28;11.57;;;9.07;;
8819;SDS011;4446;50.876;4.736;2023-03-01T12:54:01;11.98;;;8.50;;
8819;SDS011;4446;50.876;4.736;2023-03-01T12:56:37;11.73;;;8.25;;
8819;SDS011;4446;50.876;4.736;2023-03-01T12:59:08;23.40;;;9.57;;
8819;SDS011;4446;50.876;4.736;2023-03-01T13:01:42;13.68;;;9.60;;
8819;SDS011;4446;50.876;4.736;2023-03-01T13:04:24;12.82;;;9.95;;
8819;SDS011;4446;50.876;4.736;2023-03-01T13:07:06;14.18;;;9.35;;
8819;SDS011;4446;50.876;4.736;2023-03-01T13:09:44;11.63;;;8.70;;
8819;SDS011;4446;50.876;4.736;2023-03-01T13:17:59;13.25;;;8.50;;
8819;SDS011;4446;50.876;4.736;2023-03-01T13:20:32;14.82;;;10.13;;
8819;SDS011;4446;50.876;4.736;2023-03-01T13:23:02;13.60;;;9.27;;
8819;SDS011;4446;50.876;4.736;2023-03-01T13:25:32;12.90;;;9.63;;
8819;SDS011;4446;50.876;4.736;2023-03-01T13:31:05;10.57;;;8.70;;
8819;SDS011;4446;50.876;4.736;2023-03-01T13:33:37;13.82;;;9.65;;
8819;SDS011;4446;50.876;4.736;2023-03-01T13:36:09;12.05;;;8.43;;
8819;SDS011;4446;50.876;4.736;2023-03-01T13:38:45;13.88;;;10.00;;
8819;SDS011;4446;50.876;4.736;2023-03-01T13:41:13;13.38;;;9.00;;
8819;SDS011;4446;50.876;4.736;2023-03-01T13:43:41;13.02;;;9.57;;
8819;SDS011;4446;50.876;4.736;2023-03-01T13:46:11;15.80;;;8.88;;
8819;SDS011;4446;50.876;4.736;2023-03-01T13:48:44;12.52;;;8.80;;
8819;SDS011;4446;50.876;4.736;2023-03-01T13:51:15;11.13;;;8.27;;
8819;SDS011;4446;50.876;4.736;2023-03-01T13:53:42;13.00;;;9.10;;
8819;SDS011;4446;50.876;4.736;2023-03-01T13:56:12;12.88;;;8.50;;
8819;SDS011;4446;50.876;4.736;2023-03-01T13:58:49;10.25;;;8.25;;
8819;SDS011;4446;50.876;4.736;2023-03-01T14:01:26;14.93;;;9.18;;
8819;SDS011;4446;50.876;4.736;2023-03-01T14:03:54;10.30;;;8.75;;
8819;SDS011;4446;50.876;4.736;2023-03-01T14:06:24;13.90;;;9.45;;
8819;SDS011;4446;50.876;4.736;2023-03-01T14:08:59;11.05;;;8.48;;
8819;SDS011;4446;50.876;4.736;2023-03-01T14:11:35;12.13;;;8.25;;
8819;SDS011;4446;50.876;4.736;2023-03-01T14:20:12;9.98;;;8.00;;
8819;SDS011;4446;50.876;4.736;2023-03-01T14:22:43;11.25;;;8.70;;
8819;SDS011;4446;50.876;4.736;2023-03-01T14:25:17;12.07;;;8.25;;
8819;SDS011;4446;50.876;4.736;2023-03-01T14:27:54;11.40;;;8.48;;
8819;SDS011;4446;50.876;4.736;2023-03-01T14:30:25;13.02;;;9.10;;
8819;SDS011;4446;50.876;4.736;2023-03-01T14:32:54;12.10;;;8.65;;
8819;SDS011;4446;50.876;4.736;2023-03-01T14:35:23;10.93;;;7.90;;
8819;SDS011;4446;50.876;4.736;2023-03-01T14:37:53;13.77;;;8.90;;
8819;SDS011;4446;50.876;4.736;2023-03-01T14:40:24;10.60;;;9.23;;
8819;SDS011;4446;50.876;4.736;2023-03-01T14:42:53;12.63;;;8.95;;
8819;SDS011;4446;50.876;4.736;2023-03-01T14:45:22;10.73;;;8.13;;
8819;SDS011;4446;50.876;4.736;2023-03-01T14:47:52;10.88;;;8.07;;
8819;SDS011;4446;50.876;4.736;2023-03-01T14:50:24;11.60;;;8.50;;
8819;SDS011;4446;50.876;4.736;2023-03-01T14:52:55;10.68;;;7.63;;
8819;SDS011;4446;50.876;4.736;2023-03-01T14:55:25;10.52;;;7.70;;
8819;SDS011;4446;50.876;4.736;2023-03-01T14:57:56;11.35;;;7.53;;
8819;SDS011;4446;50.876;4.736;2023-03-01T15:00:24;10.80;;;7.32;;
8819;SDS011;4446;50.876;4.736;2023-03-01T15:02:53;10.45;;;7.32;;
8819;SDS011;4446;50.876;4.736;2023-03-01T15:05:23;9.10;;;7.53;;
8819;SDS011;4446;50.876;4.736;2023-03-01T15:07:56;10.00;;;7.97;;
8819;SDS011;4446;50.876;4.736;2023-03-01T15:10:25;11.00;;;7.57;;
8819;SDS011;4446;50.876;4.736;2023-03-01T15:12:55;10.43;;;7.55;;
8819;SDS011;4446;50.876;4.736;2023-03-01T15:15:31;9.93;;;7.55;;
8819;SDS011;4446;50.876;4.736;2023-03-01T15:18:01;11.25;;;7.97;;
8819;SDS011;4446;50.876;4.736;2023-03-01T15:20:30;9.38;;;6.75;;
8819;SDS011;4446;50.876;4.736;2023-03-01T15:23:02;10.18;;;7.35;;
8819;SDS011;4446;50.876;4.736;2023-03-01T15:25:30;9.45;;;7.88;;
8819;SDS011;4446;50.876;4.736;2023-03-01T15:27:59;10.75;;;7.60;;
8819;SDS011;4446;50.876;4.736;2023-03-01T15:30:29;9.98;;;7.30;;
8819;SDS011;4446;50.876;4.736;2023-03-01T15:36:02;11.02;;;6.88;;
8819;SDS011;4446;50.876;4.736;2023-03-01T15:38:57;10.57;;;7.32;;
8819;SDS011;4446;50.876;4.736;2023-03-01T15:41:25;10.25;;;7.40;;